sensor_id;sensor_type;location;lat;lon;timestamp;temperature;humidity
44069;DHT22;29738;51.234;5.484;2022-12-24T00:00:19;11.20;99.90
44069;DHT22;29738;51.234;5.484;2022-12-24T00:02:45;11.20;99.90
44069;DHT22;29738;51.234;5.484;2022-12-24T00:05:11;11.20;99.90
44069;DHT22;29738;51.234;5.484;2022-12-24T00:07:37;11.20;99.90
44069;DHT22;29738;51.234;5.484;2022-12-24T00:10:04;11.10;99.90
44069;DHT22;29738;51.234;5.484;2022-12-24T00:12:30;11.10;99.90
44069;DHT22;29738;51.234;5.484;2022-12-24T00:14:56;11.10;99.90
44069;DHT22;29738;51.234;5.484;2022-12-24T00:17:22;11.10;99.90
44069;DHT22;29738;51.234;5.484;2022-12-24T00:19:47;11.10;99.90
44069;DHT22;29738;51.234;5.484;2022-12-24T00:22:13;11.00;99.90
44069;DHT22;29738;51.234;5.484;2022-12-24T00:24:39;11.00;99.90
44069;DHT22;29738;51.234;5.484;2022-12-24T00:27:05;11.00;99.90
44069;DHT22;29738;51.234;5.484;2022-12-24T00:29:31;10.90;99.90
44069;DHT22;29738;51.234;5.484;2022-12-24T00:31:57;10.90;99.90
44069;DHT22;29738;51.234;5.484;2022-12-24T00:34:23;11.00;99.90
44069;DHT22;29738;51.234;5.484;2022-12-24T00:36:50;10.90;99.90
44069;DHT22;29738;51.234;5.484;2022-12-24T00:39:15;10.90;99.90
44069;DHT22;29738;51.234;5.484;2022-12-24T00:41:41;10.80;99.90
44069;DHT22;29738;51.234;5.484;2022-12-24T00:44:07;10.90;99.90
44069;DHT22;29738;51.234;5.484;2022-12-24T00:46:38;10.90;99.90
44069;DHT22;29738;51.234;5.484;2022-12-24T00:49:05;10.80;99.90
44069;DHT22;29738;51.234;5.484;2022-12-24T00:51:32;10.90;99.90
44069;DHT22;29738;51.234;5.484;2022-12-24T00:53:58;10.90;99.90
44069;DHT22;29738;51.234;5.484;2022-12-24T00:56:24;10.90;99.90
44069;DHT22;29738;51.234;5.484;2022-12-24T00:58:50;10.90;99.90
44069;DHT22;29738;51.234;5.484;2022-12-24T01:01:16;10.90;99.90
44069;DHT22;29738;51.234;5.484;2022-12-24T01:03:42;10.80;99.90
44069;DHT22;29738;51.234;5.484;2022-12-24T01:06:12;10.80;99.90
44069;DHT22;29738;51.234;5.484;2022-12-24T01:08:38;10.90;99.90
44069;DHT22;29738;51.234;5.484;2022-12-24T01:11:06;10.90;99.90
44069;DHT22;29738;51.234;5.484;2022-12-24T01:13:32;10.80;99.90
44069;DHT22;29738;51.234;5.484;2022-12-24T01:15:58;10.80;99.90
44069;DHT22;29738;51.234;5.484;2022-12-24T01:18:25;10.80;99.90
44069;DHT22;29738;51.234;5.484;2022-12-24T01:21:01;10.80;99.90
44069;DHT22;29738;51.234;5.484;2022-12-24T01:23:29;10.80;99.90
44069;DHT22;29738;51.234;5.484;2022-12-24T01:26:02;10.80;99.90
44069;DHT22;29738;51.234;5.484;2022-12-24T01:28:28;10.80;99.90
44069;DHT22;29738;51.234;5.484;2022-12-24T01:30:54;11.00;99.90
44069;DHT22;29738;51.234;5.484;2022-12-24T01:33:20;11.00;99.90
44069;DHT22;29738;51.234;5.484;2022-12-24T01:35:46;11.00;99.90
44069;DHT22;29738;51.234;5.484;2022-12-24T01:38:12;11.00;99.90
44069;DHT22;29738;51.234;5.484;2022-12-24T01:40:39;11.00;99.90
44069;DHT22;29738;51.234;5.484;2022-12-24T01:43:40;10.90;99.90
44069;DHT22;29738;51.234;5.484;2022-12-24T01:46:18;11.00;99.90
44069;DHT22;29738;51.234;5.484;2022-12-24T01:49:05;11.00;99.90
44069;DHT22;29738;51.234;5.484;2022-12-24T01:51:59;10.90;99.90
44069;DHT22;29738;51.234;5.484;2022-12-24T01:54:35;11.00;99.90
44069;DHT22;29738;51.234;5.484;2022-12-24T01:57:08;10.90;99.90
44069;DHT22;29738;51.234;5.484;2022-12-24T01:59:36;10.90;99.90
44069;DHT22;29738;51.234;5.484;2022-12-24T02:02:03;11.10;99.90
44069;DHT22;29738;51.234;5.484;2022-12-24T02:04:36;11.10;99.90
44069;DHT22;29738;51.234;5.484;2022-12-24T02:07:04;11.10;99.90
44069;DHT22;29738;51.234;5.484;2022-12-24T02:09:31;11.10;99.90
44069;DHT22;29738;51.234;5.484;2022-12-24T02:11:57;11.10;99.90
44069;DHT22;29738;51.234;5.484;2022-12-24T02:14:24;11.10;99.90
44069;DHT22;29738;51.234;5.484;2022-12-24T02:25:09;11.20;99.90
44069;DHT22;29738;51.234;5.484;2022-12-24T02:30:32;11.20;99.90
44069;DHT22;29738;51.234;5.484;2022-12-24T02:38:47;11.20;99.90
44069;DHT22;29738;51.234;5.484;2022-12-24T02:41:33;11.10;99.90
44069;DHT22;29738;51.234;5.484;2022-12-24T02:44:22;11.10;99.90
44069;DHT22;29738;51.234;5.484;2022-12-24T02:46:50;11.00;99.90
44069;DHT22;29738;51.234;5.484;2022-12-24T02:49:16;11.00;99.90
44069;DHT22;29738;51.234;5.484;2022-12-24T02:51:41;11.00;99.90
44069;DHT22;29738;51.234;5.484;2022-12-24T02:54:07;11.00;99.90
44069;DHT22;29738;51.234;5.484;2022-12-24T03:04:56;11.00;99.90
44069;DHT22;29738;51.234;5.484;2022-12-24T03:13:15;10.80;99.90
44069;DHT22;29738;51.234;5.484;2022-12-24T03:15:42;10.80;99.90
44069;DHT22;29738;51.234;5.484;2022-12-24T03:18:11;10.80;99.90
44069;DHT22;29738;51.234;5.484;2022-12-24T03:20:40;10.80;99.90
44069;DHT22;29738;51.234;5.484;2022-12-24T03:23:06;10.80;99.90
44069;DHT22;29738;51.234;5.484;2022-12-24T03:25:33;10.70;99.90
44069;DHT22;29738;51.234;5.484;2022-12-24T03:28:01;10.80;99.90
44069;DHT22;29738;51.234;5.484;2022-12-24T03:30:27;10.80;99.90
44069;DHT22;29738;51.234;5.484;2022-12-24T03:32:53;10.70;99.90
44069;DHT22;29738;51.234;5.484;2022-12-24T03:35:19;10.70;99.90
44069;DHT22;29738;51.234;5.484;2022-12-24T03:37:45;10.70;99.90
44069;DHT22;29738;51.234;5.484;2022-12-24T03:40:11;10.80;99.90
44069;DHT22;29738;51.234;5.484;2022-12-24T03:42:37;10.80;99.90
44069;DHT22;29738;51.234;5.484;2022-12-24T03:45:03;10.80;99.90
44069;DHT22;29738;51.234;5.484;2022-12-24T03:47:30;10.80;99.90
44069;DHT22;29738;51.234;5.484;2022-12-24T03:49:56;10.70;99.90
44069;DHT22;29738;51.234;5.484;2022-12-24T03:52:21;10.70;99.90
44069;DHT22;29738;51.234;5.484;2022-12-24T03:54:47;10.80;99.90
44069;DHT22;29738;51.234;5.484;2022-12-24T03:57:13;10.80;99.90
44069;DHT22;29738;51.234;5.484;2022-12-24T03:59:39;10.70;99.90
44069;DHT22;29738;51.234;5.484;2022-12-24T04:02:05;10.80;99.90
44069;DHT22;29738;51.234;5.484;2022-12-24T04:04:30;10.80;99.90
44069;DHT22;29738;51.234;5.484;2022-12-24T04:06:58;10.80;99.90
44069;DHT22;29738;51.234;5.484;2022-12-24T04:09:24;10.70;99.90
44069;DHT22;29738;51.234;5.484;2022-12-24T04:11:49;10.70;99.90
44069;DHT22;29738;51.234;5.484;2022-12-24T04:14:15;10.70;99.90
44069;DHT22;29738;51.234;5.484;2022-12-24T04:16:41;10.70;99.90
44069;DHT22;29738;51.234;5.484;2022-12-24T04:19:07;10.80;99.90
44069;DHT22;29738;51.234;5.484;2022-12-24T04:21:33;10.80;99.90
44069;DHT22;29738;51.234;5.484;2022-12-24T04:23:59;10.90;99.90
44069;DHT22;29738;51.234;5.484;2022-12-24T04:26:25;10.80;99.90
44069;DHT22;29738;51.234;5.484;2022-12-24T04:28:50;10.80;99.90
44069;DHT22;29738;51.234;5.484;2022-12-24T04:31:16;10.80;99.90
44069;DHT22;29738;51.234;5.484;2022-12-24T04:33:43;10.90;99.90
44069;DHT22;29738;51.234;5.484;2022-12-24T04:36:12;10.90;99.90
44069;DHT22;29738;51.234;5.484;2022-12-24T04:38:40;10.70;99.90
44069;DHT22;29738;51.234;5.484;2022-12-24T04:41:09;10.80;99.90
44069;DHT22;29738;51.234;5.484;2022-12-24T04:43:35;10.80;99.90
44069;DHT22;29738;51.234;5.484;2022-12-24T04:46:09;10.80;99.90
44069;DHT22;29738;51.234;5.484;2022-12-24T04:48:35;10.80;99.90
44069;DHT22;29738;51.234;5.484;2022-12-24T04:51:03;10.70;99.90
44069;DHT22;29738;51.234;5.484;2022-12-24T04:53:29;10.80;99.90
44069;DHT22;29738;51.234;5.484;2022-12-24T04:55:55;10.80;99.90
44069;DHT22;29738;51.234;5.484;2022-12-24T04:58:21;10.70;99.90
44069;DHT22;29738;51.234;5.484;2022-12-24T05:00:47;10.60;99.90
44069;DHT22;29738;51.234;5.484;2022-12-24T05:03:13;10.70;99.90
44069;DHT22;29738;51.234;5.484;2022-12-24T05:05:38;10.70;99.90
44069;DHT22;29738;51.234;5.484;2022-12-24T05:08:04;10.60;99.90
44069;DHT22;29738;51.234;5.484;2022-12-24T05:10:31;10.70;99.90
44069;DHT22;29738;51.234;5.484;2022-12-24T05:12:57;10.60;99.90
44069;DHT22;29738;51.234;5.484;2022-12-24T05:15:23;10.60;99.90
44069;DHT22;29738;51.234;5.484;2022-12-24T05:17:49;10.60;99.90
44069;DHT22;29738;51.234;5.484;2022-12-24T05:20:15;10.60;99.90
44069;DHT22;29738;51.234;5.484;2022-12-24T05:22:41;10.60;99.90
44069;DHT22;29738;51.234;5.484;2022-12-24T05:25:31;10.70;99.90
44069;DHT22;29738;51.234;5.484;2022-12-24T05:28:16;10.70;99.90
44069;DHT22;29738;51.234;5.484;2022-12-24T05:30:42;10.70;99.90
44069;DHT22;29738;51.234;5.484;2022-12-24T05:33:08;10.70;99.90
44069;DHT22;29738;51.234;5.484;2022-12-24T05:35:34;10.70;99.90
44069;DHT22;29738;51.234;5.484;2022-12-24T05:38:00;10.70;99.90
44069;DHT22;29738;51.234;5.484;2022-12-24T05:40:25;10.70;99.90
44069;DHT22;29738;51.234;5.484;2022-12-24T05:42:51;10.80;99.90
44069;DHT22;29738;51.234;5.484;2022-12-24T05:45:17;10.80;99.90
44069;DHT22;29738;51.234;5.484;2022-12-24T05:47:42;10.80;99.90
44069;DHT22;29738;51.234;5.484;2022-12-24T05:50:09;10.80;99.90
44069;DHT22;29738;51.234;5.484;2022-12-24T05:52:35;10.80;99.90
44069;DHT22;29738;51.234;5.484;2022-12-24T05:55:00;10.80;99.90
44069;DHT22;29738;51.234;5.484;2022-12-24T05:57:26;10.80;99.90
44069;DHT22;29738;51.234;5.484;2022-12-24T05:59:52;10.80;99.90
44069;DHT22;29738;51.234;5.484;2022-12-24T06:02:18;10.70;99.90
44069;DHT22;29738;51.234;5.484;2022-12-24T06:04:43;10.80;99.90
44069;DHT22;29738;51.234;5.484;2022-12-24T06:07:09;10.80;99.90
44069;DHT22;29738;51.234;5.484;2022-12-24T06:09:35;10.80;99.90
44069;DHT22;29738;51.234;5.484;2022-12-24T06:12:01;10.80;99.90
44069;DHT22;29738;51.234;5.484;2022-12-24T06:14:26;10.80;99.90
44069;DHT22;29738;51.234;5.484;2022-12-24T06:16:52;10.80;99.90
44069;DHT22;29738;51.234;5.484;2022-12-24T06:19:18;10.80;99.90
44069;DHT22;29738;51.234;5.484;2022-12-24T06:21:44;10.80;99.90
44069;DHT22;29738;51.234;5.484;2022-12-24T06:24:09;10.90;99.90
44069;DHT22;29738;51.234;5.484;2022-12-24T06:26:35;10.90;99.90
44069;DHT22;29738;51.234;5.484;2022-12-24T06:29:01;10.90;99.90
44069;DHT22;29738;51.234;5.484;2022-12-24T06:31:26;10.80;99.90
44069;DHT22;29738;51.234;5.484;2022-12-24T06:33:52;10.90;99.90
44069;DHT22;29738;51.234;5.484;2022-12-24T06:36:21;10.90;99.90
44069;DHT22;29738;51.234;5.484;2022-12-24T06:38:47;11.00;99.90
44069;DHT22;29738;51.234;5.484;2022-12-24T06:41:14;11.00;99.90
44069;DHT22;29738;51.234;5.484;2022-12-24T06:43:43;11.00;99.90
44069;DHT22;29738;51.234;5.484;2022-12-24T06:46:10;11.00;99.90
44069;DHT22;29738;51.234;5.484;2022-12-24T06:48:36;11.00;99.90
44069;DHT22;29738;51.234;5.484;2022-12-24T06:51:02;10.90;99.90
44069;DHT22;29738;51.234;5.484;2022-12-24T06:53:28;10.80;99.90
44069;DHT22;29738;51.234;5.484;2022-12-24T06:56:09;10.90;99.90
44069;DHT22;29738;51.234;5.484;2022-12-24T06:58:36;10.90;99.90
44069;DHT22;29738;51.234;5.484;2022-12-24T07:01:04;11.00;99.90
44069;DHT22;29738;51.234;5.484;2022-12-24T07:03:31;11.00;99.90
44069;DHT22;29738;51.234;5.484;2022-12-24T07:05:57;11.00;99.90
44069;DHT22;29738;51.234;5.484;2022-12-24T07:08:22;10.90;99.90
44069;DHT22;29738;51.234;5.484;2022-12-24T07:10:49;10.90;99.90
44069;DHT22;29738;51.234;5.484;2022-12-24T07:13:15;10.90;99.90
44069;DHT22;29738;51.234;5.484;2022-12-24T07:15:41;10.90;99.90
44069;DHT22;29738;51.234;5.484;2022-12-24T07:18:07;11.00;99.90
44069;DHT22;29738;51.234;5.484;2022-12-24T07:20:33;10.90;99.90
44069;DHT22;29738;51.234;5.484;2022-12-24T07:22:59;10.80;99.90
44069;DHT22;29738;51.234;5.484;2022-12-24T07:25:25;10.80;99.90
44069;DHT22;29738;51.234;5.484;2022-12-24T07:27:50;10.90;99.90
44069;DHT22;29738;51.234;5.484;2022-12-24T07:30:16;10.80;99.90
44069;DHT22;29738;51.234;5.484;2022-12-24T07:32:42;10.90;99.90
44069;DHT22;29738;51.234;5.484;2022-12-24T07:35:09;10.80;99.90
44069;DHT22;29738;51.234;5.484;2022-12-24T07:37:34;10.80;99.90
44069;DHT22;29738;51.234;5.484;2022-12-24T07:40:00;10.80;99.90
44069;DHT22;29738;51.234;5.484;2022-12-24T07:42:26;10.80;99.90
44069;DHT22;29738;51.234;5.484;2022-12-24T07:44:52;10.70;99.90
44069;DHT22;29738;51.234;5.484;2022-12-24T07:47:18;10.70;99.90
44069;DHT22;29738;51.234;5.484;2022-12-24T07:49:44;10.80;99.90
44069;DHT22;29738;51.234;5.484;2022-12-24T07:52:10;10.80;99.90
44069;DHT22;29738;51.234;5.484;2022-12-24T07:54:35;10.70;99.90
44069;DHT22;29738;51.234;5.484;2022-12-24T07:57:01;10.70;99.90
44069;DHT22;29738;51.234;5.484;2022-12-24T07:59:27;10.70;99.90
44069;DHT22;29738;51.234;5.484;2022-12-24T08:01:53;10.80;99.90
44069;DHT22;29738;51.234;5.484;2022-12-24T08:04:18;10.90;99.90
44069;DHT22;29738;51.234;5.484;2022-12-24T08:06:44;10.80;99.90
44069;DHT22;29738;51.234;5.484;2022-12-24T08:09:10;10.80;99.90
44069;DHT22;29738;51.234;5.484;2022-12-24T08:11:36;10.80;99.90
44069;DHT22;29738;51.234;5.484;2022-12-24T08:14:02;10.90;99.90
44069;DHT22;29738;51.234;5.484;2022-12-24T08:16:27;10.90;99.90
44069;DHT22;29738;51.234;5.484;2022-12-24T08:18:53;10.90;99.90
44069;DHT22;29738;51.234;5.484;2022-12-24T08:21:19;10.80;99.90
44069;DHT22;29738;51.234;5.484;2022-12-24T08:23:46;10.80;99.90
44069;DHT22;29738;51.234;5.484;2022-12-24T08:26:12;10.90;99.90
44069;DHT22;29738;51.234;5.484;2022-12-24T08:28:37;11.00;99.90
44069;DHT22;29738;51.234;5.484;2022-12-24T08:31:04;10.90;99.90
44069;DHT22;29738;51.234;5.484;2022-12-24T08:33:30;11.00;99.90
44069;DHT22;29738;51.234;5.484;2022-12-24T08:35:56;11.00;99.90
44069;DHT22;29738;51.234;5.484;2022-12-24T08:38:22;11.00;99.90
44069;DHT22;29738;51.234;5.484;2022-12-24T08:40:48;11.00;99.90
44069;DHT22;29738;51.234;5.484;2022-12-24T08:43:15;11.00;99.90
44069;DHT22;29738;51.234;5.484;2022-12-24T08:45:42;11.10;99.90
44069;DHT22;29738;51.234;5.484;2022-12-24T08:48:08;10.90;99.90
44069;DHT22;29738;51.234;5.484;2022-12-24T08:50:37;11.10;99.90
44069;DHT22;29738;51.234;5.484;2022-12-24T08:53:03;10.90;99.90
44069;DHT22;29738;51.234;5.484;2022-12-24T08:55:29;10.90;99.90
44069;DHT22;29738;51.234;5.484;2022-12-24T08:57:54;11.00;99.90
44069;DHT22;29738;51.234;5.484;2022-12-24T09:00:20;11.00;99.90
44069;DHT22;29738;51.234;5.484;2022-12-24T09:02:46;11.00;99.90
44069;DHT22;29738;51.234;5.484;2022-12-24T09:05:12;10.90;99.90
44069;DHT22;29738;51.234;5.484;2022-12-24T09:07:37;11.00;99.90
44069;DHT22;29738;51.234;5.484;2022-12-24T09:10:04;10.90;99.90
44069;DHT22;29738;51.234;5.484;2022-12-24T09:12:30;11.00;99.90
44069;DHT22;29738;51.234;5.484;2022-12-24T09:14:55;11.00;99.90
44069;DHT22;29738;51.234;5.484;2022-12-24T09:17:21;11.00;99.90
44069;DHT22;29738;51.234;5.484;2022-12-24T09:19:47;11.00;99.90
44069;DHT22;29738;51.234;5.484;2022-12-24T09:22:13;11.00;99.90
44069;DHT22;29738;51.234;5.484;2022-12-24T09:24:39;11.00;99.90
44069;DHT22;29738;51.234;5.484;2022-12-24T09:27:05;11.00;99.90
44069;DHT22;29738;51.234;5.484;2022-12-24T09:29:31;11.00;99.90
44069;DHT22;29738;51.234;5.484;2022-12-24T09:31:57;11.00;99.90
44069;DHT22;29738;51.234;5.484;2022-12-24T09:34:24;11.10;99.90
44069;DHT22;29738;51.234;5.484;2022-12-24T09:36:49;11.00;99.90
44069;DHT22;29738;51.234;5.484;2022-12-24T09:39:16;11.10;99.90
44069;DHT22;29738;51.234;5.484;2022-12-24T09:42:06;11.20;99.90
44069;DHT22;29738;51.234;5.484;2022-12-24T09:44:44;11.20;99.90
44069;DHT22;29738;51.234;5.484;2022-12-24T09:47:42;11.30;99.90
44069;DHT22;29738;51.234;5.484;2022-12-24T09:53:03;11.20;99.90
44069;DHT22;29738;51.234;5.484;2022-12-24T09:55:34;11.20;99.90
44069;DHT22;29738;51.234;5.484;2022-12-24T09:58:03;11.20;99.90
44069;DHT22;29738;51.234;5.484;2022-12-24T10:00:35;11.30;99.90
44069;DHT22;29738;51.234;5.484;2022-12-24T10:03:14;11.30;99.90
44069;DHT22;29738;51.234;5.484;2022-12-24T10:05:50;11.40;99.90
44069;DHT22;29738;51.234;5.484;2022-12-24T10:08:29;11.30;99.90
44069;DHT22;29738;51.234;5.484;2022-12-24T10:11:12;11.30;99.90
44069;DHT22;29738;51.234;5.484;2022-12-24T10:19:23;11.40;99.90
44069;DHT22;29738;51.234;5.484;2022-12-24T10:27:44;11.40;99.90
44069;DHT22;29738;51.234;5.484;2022-12-24T10:30:18;11.40;99.90
44069;DHT22;29738;51.234;5.484;2022-12-24T10:32:46;11.40;99.90
44069;DHT22;29738;51.234;5.484;2022-12-24T10:37:43;11.60;99.90
44069;DHT22;29738;51.234;5.484;2022-12-24T10:40:20;11.50;99.90
44069;DHT22;29738;51.234;5.484;2022-12-24T10:42:49;11.60;99.90
44069;DHT22;29738;51.234;5.484;2022-12-24T10:45:20;11.50;99.90
44069;DHT22;29738;51.234;5.484;2022-12-24T10:47:50;11.50;99.90
44069;DHT22;29738;51.234;5.484;2022-12-24T10:50:27;11.50;99.90
44069;DHT22;29738;51.234;5.484;2022-12-24T10:53:09;11.60;99.90
44069;DHT22;29738;51.234;5.484;2022-12-24T10:55:37;11.60;99.90
44069;DHT22;29738;51.234;5.484;2022-12-24T10:58:04;11.50;99.90
44069;DHT22;29738;51.234;5.484;2022-12-24T11:00:32;11.60;99.90
44069;DHT22;29738;51.234;5.484;2022-12-24T11:05:37;11.50;99.90
44069;DHT22;29738;51.234;5.484;2022-12-24T11:08:13;11.50;99.90
44069;DHT22;29738;51.234;5.484;2022-12-24T11:11:01;11.50;99.90
44069;DHT22;29738;51.234;5.484;2022-12-24T11:13:33;11.50;99.90
44069;DHT22;29738;51.234;5.484;2022-12-24T11:16:00;11.60;99.90
44069;DHT22;29738;51.234;5.484;2022-12-24T11:18:26;11.70;99.90
44069;DHT22;29738;51.234;5.484;2022-12-24T11:20:52;11.90;99.90
44069;DHT22;29738;51.234;5.484;2022-12-24T11:23:18;11.90;99.90
44069;DHT22;29738;51.234;5.484;2022-12-24T11:25:49;11.80;99.90
44069;DHT22;29738;51.234;5.484;2022-12-24T11:28:20;11.80;99.90
44069;DHT22;29738;51.234;5.484;2022-12-24T11:31:05;11.80;99.90
44069;DHT22;29738;51.234;5.484;2022-12-24T11:33:32;11.80;99.90
44069;DHT22;29738;51.234;5.484;2022-12-24T11:36:12;12.00;99.90
44069;DHT22;29738;51.234;5.484;2022-12-24T11:38:38;12.20;99.90
44069;DHT22;29738;51.234;5.484;2022-12-24T11:41:11;12.20;99.90
44069;DHT22;29738;51.234;5.484;2022-12-24T11:43:47;12.30;99.90
44069;DHT22;29738;51.234;5.484;2022-12-24T11:48:44;12.30;99.90
44069;DHT22;29738;51.234;5.484;2022-12-24T11:51:25;12.30;99.90
44069;DHT22;29738;51.234;5.484;2022-12-24T11:56:46;12.50;99.90
44069;DHT22;29738;51.234;5.484;2022-12-24T11:59:27;12.50;99.90
44069;DHT22;29738;51.234;5.484;2022-12-24T12:02:32;12.40;99.90
44069;DHT22;29738;51.234;5.484;2022-12-24T12:04:58;12.40;99.90
44069;DHT22;29738;51.234;5.484;2022-12-24T12:07:28;12.30;99.90
44069;DHT22;29738;51.234;5.484;2022-12-24T12:10:05;12.30;99.90
44069;DHT22;29738;51.234;5.484;2022-12-24T12:12:42;12.30;99.90
44069;DHT22;29738;51.234;5.484;2022-12-24T12:15:13;12.40;99.90
44069;DHT22;29738;51.234;5.484;2022-12-24T12:18:06;12.30;99.90
44069;DHT22;29738;51.234;5.484;2022-12-24T12:20:45;12.20;99.90
44069;DHT22;29738;51.234;5.484;2022-12-24T12:25:59;12.20;99.90
44069;DHT22;29738;51.234;5.484;2022-12-24T12:31:05;12.00;99.90
44069;DHT22;29738;51.234;5.484;2022-12-24T12:33:49;11.90;99.90
44069;DHT22;29738;51.234;5.484;2022-12-24T12:36:22;12.00;99.90
44069;DHT22;29738;51.234;5.484;2022-12-24T12:38:50;12.00;99.90
44069;DHT22;29738;51.234;5.484;2022-12-24T12:50:22;12.30;99.90
44069;DHT22;29738;51.234;5.484;2022-12-24T12:58:38;12.40;99.90
44069;DHT22;29738;51.234;5.484;2022-12-24T13:01:15;12.10;99.90
44069;DHT22;29738;51.234;5.484;2022-12-24T13:07:21;12.10;99.90
44069;DHT22;29738;51.234;5.484;2022-12-24T13:17:51;12.20;99.90
44069;DHT22;29738;51.234;5.484;2022-12-24T13:20:29;12.20;99.90
44069;DHT22;29738;51.234;5.484;2022-12-24T13:22:57;12.20;99.90
44069;DHT22;29738;51.234;5.484;2022-12-24T13:25:44;12.10;99.90
44069;DHT22;29738;51.234;5.484;2022-12-24T13:28:15;12.00;99.90
44069;DHT22;29738;51.234;5.484;2022-12-24T13:30:41;12.00;99.90
44069;DHT22;29738;51.234;5.484;2022-12-24T13:33:12;11.90;99.90
44069;DHT22;29738;51.234;5.484;2022-12-24T13:35:57;11.80;99.90
44069;DHT22;29738;51.234;5.484;2022-12-24T13:40:53;11.80;99.90
44069;DHT22;29738;51.234;5.484;2022-12-24T13:43:19;11.80;99.90
44069;DHT22;29738;51.234;5.484;2022-12-24T13:45:49;11.90;99.90
44069;DHT22;29738;51.234;5.484;2022-12-24T13:50:50;11.90;99.90
44069;DHT22;29738;51.234;5.484;2022-12-24T13:53:29;12.00;99.90
44069;DHT22;29738;51.234;5.484;2022-12-24T13:58:49;12.00;99.90
44069;DHT22;29738;51.234;5.484;2022-12-24T14:01:37;11.90;99.90
44069;DHT22;29738;51.234;5.484;2022-12-24T14:04:05;12.00;99.90
44069;DHT22;29738;51.234;5.484;2022-12-24T14:06:35;11.90;99.90
44069;DHT22;29738;51.234;5.484;2022-12-24T14:14:35;11.80;99.90
44069;DHT22;29738;51.234;5.484;2022-12-24T14:19:45;11.70;99.90
44069;DHT22;29738;51.234;5.484;2022-12-24T14:25:00;11.60;99.90
44069;DHT22;29738;51.234;5.484;2022-12-24T14:30:22;11.70;99.90
44069;DHT22;29738;51.234;5.484;2022-12-24T14:32:50;11.70;99.90
44069;DHT22;29738;51.234;5.484;2022-12-24T14:37:49;11.70;99.90
44069;DHT22;29738;51.234;5.484;2022-12-24T14:40:20;11.60;99.90
44069;DHT22;29738;51.234;5.484;2022-12-24T14:45:42;11.70;99.90
44069;DHT22;29738;51.234;5.484;2022-12-24T14:53:19;11.70;99.90
44069;DHT22;29738;51.234;5.484;2022-12-24T14:55:48;11.60;99.90
44069;DHT22;29738;51.234;5.484;2022-12-24T14:58:35;11.50;99.90
44069;DHT22;29738;51.234;5.484;2022-12-24T15:01:28;11.20;99.90
44069;DHT22;29738;51.234;5.484;2022-12-24T15:04:04;11.40;99.90
44069;DHT22;29738;51.234;5.484;2022-12-24T15:06:52;11.60;99.90
44069;DHT22;29738;51.234;5.484;2022-12-24T15:09:29;11.60;99.90
44069;DHT22;29738;51.234;5.484;2022-12-24T15:12:01;11.50;99.90
44069;DHT22;29738;51.234;5.484;2022-12-24T15:14:30;11.40;99.90
44069;DHT22;29738;51.234;5.484;2022-12-24T15:17:03;11.50;99.90
44069;DHT22;29738;51.234;5.484;2022-12-24T15:19:35;11.60;99.90
44069;DHT22;29738;51.234;5.484;2022-12-24T15:22:03;11.60;99.90
44069;DHT22;29738;51.234;5.484;2022-12-24T15:24:34;11.70;99.90
44069;DHT22;29738;51.234;5.484;2022-12-24T15:27:01;11.50;99.90
44069;DHT22;29738;51.234;5.484;2022-12-24T15:29:31;11.50;99.90
44069;DHT22;29738;51.234;5.484;2022-12-24T15:31:59;11.40;99.90
44069;DHT22;29738;51.234;5.484;2022-12-24T15:34:35;11.30;99.90
44069;DHT22;29738;51.234;5.484;2022-12-24T15:37:17;11.10;99.90
44069;DHT22;29738;51.234;5.484;2022-12-24T15:39:44;11.00;99.90
44069;DHT22;29738;51.234;5.484;2022-12-24T15:42:16;10.80;99.90
44069;DHT22;29738;51.234;5.484;2022-12-24T15:45:17;11.00;99.90
44069;DHT22;29738;51.234;5.484;2022-12-24T15:47:58;11.20;99.90
44069;DHT22;29738;51.234;5.484;2022-12-24T15:50:33;11.30;99.90
44069;DHT22;29738;51.234;5.484;2022-12-24T15:53:24;11.10;99.90
44069;DHT22;29738;51.234;5.484;2022-12-24T15:56:07;11.00;99.90
44069;DHT22;29738;51.234;5.484;2022-12-24T15:58:39;10.80;99.90
44069;DHT22;29738;51.234;5.484;2022-12-24T16:01:24;10.80;99.90
44069;DHT22;29738;51.234;5.484;2022-12-24T16:06:17;10.70;99.90
44069;DHT22;29738;51.234;5.484;2022-12-24T16:08:43;10.70;99.90
44069;DHT22;29738;51.234;5.484;2022-12-24T16:11:16;10.80;99.90
44069;DHT22;29738;51.234;5.484;2022-12-24T16:16:29;10.80;99.90
44069;DHT22;29738;51.234;5.484;2022-12-24T16:18:57;10.70;99.90
44069;DHT22;29738;51.234;5.484;2022-12-24T16:21:36;10.70;99.90
44069;DHT22;29738;51.234;5.484;2022-12-24T16:26:39;10.60;99.90
44069;DHT22;29738;51.234;5.484;2022-12-24T16:29:06;10.50;99.90
44069;DHT22;29738;51.234;5.484;2022-12-24T16:31:35;10.40;99.90
44069;DHT22;29738;51.234;5.484;2022-12-24T16:34:02;10.50;99.90
44069;DHT22;29738;51.234;5.484;2022-12-24T16:36:29;10.40;99.90
44069;DHT22;29738;51.234;5.484;2022-12-24T16:38:56;10.40;99.90
44069;DHT22;29738;51.234;5.484;2022-12-24T16:41:41;10.30;99.90
44069;DHT22;29738;51.234;5.484;2022-12-24T16:44:25;10.30;99.90
44069;DHT22;29738;51.234;5.484;2022-12-24T16:46:52;10.20;99.90
44069;DHT22;29738;51.234;5.484;2022-12-24T16:49:19;10.10;99.90
44069;DHT22;29738;51.234;5.484;2022-12-24T16:51:46;10.10;99.90
44069;DHT22;29738;51.234;5.484;2022-12-24T16:54:12;10.10;99.90
44069;DHT22;29738;51.234;5.484;2022-12-24T16:56:39;10.10;99.90
44069;DHT22;29738;51.234;5.484;2022-12-24T16:59:05;10.00;99.90
44069;DHT22;29738;51.234;5.484;2022-12-24T17:01:31;10.00;99.90
44069;DHT22;29738;51.234;5.484;2022-12-24T17:03:57;9.80;99.90
44069;DHT22;29738;51.234;5.484;2022-12-24T17:06:22;9.90;99.90
44069;DHT22;29738;51.234;5.484;2022-12-24T17:08:48;9.90;99.90
44069;DHT22;29738;51.234;5.484;2022-12-24T17:11:14;9.90;99.90
44069;DHT22;29738;51.234;5.484;2022-12-24T17:13:40;9.70;99.90
44069;DHT22;29738;51.234;5.484;2022-12-24T17:16:06;9.70;99.90
44069;DHT22;29738;51.234;5.484;2022-12-24T17:18:31;9.60;99.90
44069;DHT22;29738;51.234;5.484;2022-12-24T17:20:59;9.60;99.90
44069;DHT22;29738;51.234;5.484;2022-12-24T17:23:25;9.50;99.90
44069;DHT22;29738;51.234;5.484;2022-12-24T17:25:51;9.50;99.90
44069;DHT22;29738;51.234;5.484;2022-12-24T17:28:16;9.50;99.90
44069;DHT22;29738;51.234;5.484;2022-12-24T17:30:42;9.30;99.90
44069;DHT22;29738;51.234;5.484;2022-12-24T17:33:08;9.20;99.90
44069;DHT22;29738;51.234;5.484;2022-12-24T17:35:41;9.20;99.90
44069;DHT22;29738;51.234;5.484;2022-12-24T17:38:12;9.40;99.90
44069;DHT22;29738;51.234;5.484;2022-12-24T17:40:38;9.40;99.90
44069;DHT22;29738;51.234;5.484;2022-12-24T17:43:04;9.40;99.90
44069;DHT22;29738;51.234;5.484;2022-12-24T17:45:30;9.40;99.90
44069;DHT22;29738;51.234;5.484;2022-12-24T17:47:55;9.40;99.90
44069;DHT22;29738;51.234;5.484;2022-12-24T17:50:21;9.40;99.90
44069;DHT22;29738;51.234;5.484;2022-12-24T17:52:47;9.50;99.90